createdAt,value
2019-05-21T00:04:28.806Z,90.43
2019-05-21T00:09:35.299Z,92.09
2019-05-21T00:14:40.709Z,93.15
2019-05-21T00:19:46.036Z,92.99
2019-05-21T00:24:51.681Z,93.30
2019-05-21T00:30:33.062Z,93.57
2019-05-21T00:36:15.548Z,92.85
2019-05-21T00:41:57.077Z,92.78
2019-05-21T00:47:02.901Z,93.71
2019-05-21T00:52:09.647Z,92.87
2019-05-21T00:57:16.307Z,93.08
2019-05-21T01:02:21.659Z,93.44
2019-05-21T01:07:27.979Z,92.67
2019-05-21T01:12:33.464Z,92.60
2019-05-21T01:17:40.048Z,94.08
2019-05-21T01:22:45.419Z,94.94
2019-05-21T01:27:51.064Z,94.92
2019-05-21T01:32:57.785Z,94.84
2019-05-21T01:38:03.245Z,93.52
2019-05-21T01:43:09.109Z,93.05
2019-05-21T01:48:14.711Z,92.79
2019-05-21T01:53:20.533Z,91.86
2019-05-21T01:58:27.478Z,92.11
2019-05-21T02:03:32.884Z,93.02
2019-05-21T02:08:38.291Z,92.73
2019-05-21T02:13:45.382Z,92.78
2019-05-21T02:18:52.170Z,93.02
2019-05-21T02:23:57.509Z,92.92
2019-05-21T02:29:03.193Z,92.40
2019-05-21T02:34:08.732Z,92.24
2019-05-21T02:39:14.496Z,92.89
2019-05-21T02:44:20.534Z,92.85
2019-05-21T02:49:25.919Z,93.50
2019-05-21T02:54:40.697Z,93.77
2019-05-21T02:59:39.756Z,91.27
2019-05-21T03:04:45.149Z,91.00
2019-05-21T03:09:51.549Z,92.91
2019-05-21T03:14:57.216Z,94.07
2019-05-21T03:20:07.617Z,94.41
2019-05-21T03:25:21.975Z,94.40
2019-05-21T03:30:27.531Z,94.07
2019-05-21T03:35:32.935Z,93.86
2019-05-21T03:40:38.439Z,94.16
2019-05-21T03:45:43.813Z,94.66
2019-05-21T03:50:50.124Z,94.47
2019-05-21T03:55:56.630Z,94.07
2019-05-21T04:01:02.660Z,95.27
2019-05-21T04:06:08.178Z,95.92
2019-05-21T04:11:13.646Z,96.35
2019-05-21T04:16:40.773Z,96.28
2019-05-21T04:21:46.273Z,95.04
2019-05-21T14:41:22.985Z,49.49
2019-05-21T14:46:59.517Z,49.12
2019-05-21T14:52:15.656Z,49.35
2019-05-21T14:58:10.820Z,49.44
2019-05-21T15:03:29.569Z,51.21
2019-05-21T15:09:19.695Z,51.46
2019-05-21T15:14:35.488Z,51.18
2019-05-21T15:20:23.694Z,52.22
2019-05-21T15:25:50.561Z,52.03
2019-05-21T15:31:11.245Z,52.51
2019-05-21T15:36:36.895Z,52.51
2019-05-21T15:41:54.191Z,53.18
2019-05-21T15:47:20.767Z,52.78
2019-05-21T15:52:54.309Z,51.99
2019-05-21T15:58:10.333Z,52.24
2019-05-21T16:03:27.738Z,52.38
2019-05-21T16:08:50.940Z,51.62
2019-05-21T16:14:05.733Z,51.19
2019-05-21T16:19:37.031Z,51.77
2019-05-21T16:25:26.029Z,51.86
2019-05-21T16:31:16.632Z,50.16
2019-05-21T16:36:30.810Z,49.79
2019-05-21T16:41:44.796Z,49.70
2019-05-21T16:53:31.541Z,49.40
2019-05-21T16:58:45.575Z,50.47
2019-05-21T17:04:23.621Z,50.71
2019-05-21T17:15:13.459Z,52.54
2019-05-21T17:20:24.708Z,52.84
2019-05-21T17:25:33.448Z,50.89
2019-05-21T17:30:41.211Z,51.77
2019-05-21T17:35:48.272Z,54.09
2019-05-21T17:40:54.944Z,56.41
2019-05-21T17:46:09.205Z,57.29
2019-05-21T17:51:19.789Z,56.21
2019-05-21T17:56:27.731Z,56.20
2019-05-21T18:01:39.551Z,57.05
2019-05-21T18:06:55.639Z,58.08
2019-05-21T18:12:03.821Z,57.78
2019-05-21T18:17:20.627Z,58.66
2019-05-21T18:22:30.017Z,58.03
2019-05-21T18:27:37.193Z,57.95
2019-05-21T18:32:43.024Z,58.79
2019-05-21T18:37:51.117Z,59.36
2019-05-21T18:42:58.043Z,59.79
2019-05-21T18:48:06.218Z,60.42
2019-05-21T18:53:21.793Z,61.43
2019-05-21T18:58:40.102Z,61.34
2019-05-21T19:03:46.631Z,62.43
2019-05-21T19:08:53.326Z,62.59
2019-05-21T19:14:01.581Z,63.00
2019-05-21T19:19:09.458Z,63.76
2019-05-21T19:24:18.585Z,65.25
2019-05-21T19:29:26.505Z,64.08
2019-05-21T19:34:36.991Z,65.07
2019-05-21T19:39:46.844Z,65.06
2019-05-21T19:44:52.604Z,64.51
2019-05-21T19:49:58.765Z,63.84
2019-05-21T19:55:06.487Z,64.22
2019-05-21T20:00:15.296Z,64.53
2019-05-21T20:05:21.664Z,64.46
2019-05-21T20:10:33.972Z,65.93
2019-05-21T20:15:41.293Z,66.84
2019-05-21T20:20:48.082Z,68.27
2019-05-21T20:25:56.795Z,70.52
2019-05-21T20:31:05.405Z,72.35
2019-05-21T20:36:11.625Z,75.34
2019-05-21T20:41:20.067Z,76.04
2019-05-21T20:46:30.716Z,77.93
2019-05-21T20:51:37.684Z,80.80
2019-05-21T20:56:44.358Z,82.35
2019-05-21T21:01:50.403Z,81.36
2019-05-21T21:06:56.886Z,83.82
